Time;durP1;ratioP1;P1;durP2;ratioP2;P2;SDS_P1;SDS_P2;PMS_P1;PMS_P2;Temp;Humidity;BMP_temperature;BMP_pressure;BME280_temperature;BME280_humidity;BME280_pressure;Samples;Min_cycle;Max_cycle;Signal;HPM_P1;HPM_P2
2021/04/02 00:01:09;;;;;;;6.60;5.10;;;16.50;99.90;;;;;;5117469;28;20175;-68
2021/04/02 00:03:37;;;;;;;6.87;5.17;;;16.30;99.90;;;;;;5098712;28;20199;-68
2021/04/02 00:06:07;;;;;;;7.17;5.17;;;16.30;99.90;;;;;;5117071;28;20776;-68
2021/04/02 00:08:33;;;;;;;6.00;4.60;;;16.40;99.90;;;;;;5116932;28;20436;-67
2021/04/02 00:11:01;;;;;;;4.80;4.13;;;16.50;99.90;;;;;;5117151;28;20474;-67
2021/04/02 00:13:33;;;;;;;5.20;4.03;;;16.40;99.90;;;;;;5116858;28;20195;-68
2021/04/02 00:15:59;;;;;;;7.53;4.50;;;16.50;99.90;;;;;;5098665;28;20416;-69
2021/04/02 00:18:26;;;;;;;5.67;4.40;;;16.60;99.90;;;;;;5116802;28;20934;-68
2021/04/02 00:20:53;;;;;;;4.37;3.47;;;16.90;99.90;;;;;;5116979;28;20412;-68
2021/04/02 00:23:20;;;;;;;8.80;5.03;;;16.70;99.90;;;;;;5116699;28;20606;-67
2021/04/02 00:25:45;;;;;;;8.67;5.10;;;16.90;99.90;;;;;;5116777;28;20438;-68
2021/04/02 00:28:11;;;;;;;7.80;4.77;;;16.90;99.90;;;;;;5116560;28;20504;-68
2021/04/02 00:30:50;;;;;;;7.87;4.53;;;17.00;99.90;;;;;;5115936;28;20184;-69
2021/04/02 00:33:19;;;;;;;4.93;4.27;;;16.90;99.90;;;;;;5116620;28;20657;-68
2021/04/02 00:35:45;;;;;;;6.80;4.90;;;16.80;99.90;;;;;;5116696;28;20408;-68
2021/04/02 00:38:11;;;;;;;7.30;5.77;;;16.90;99.90;;;;;;5116421;28;20424;-69
2021/04/02 00:40:44;;;;;;;7.60;4.57;;;17.00;99.90;;;;;;5098233;28;20175;-69
2021/04/02 00:43:12;;;;;;;5.43;4.10;;;17.00;99.90;;;;;;5116449;28;20523;-68
2021/04/02 00:45:37;;;;;;;4.80;4.23;;;17.00;99.90;;;;;;5116489;28;20893;-66
2021/04/02 00:48:05;;;;;;;6.47;4.90;;;17.00;99.90;;;;;;5116189;28;20508;-65
2021/04/02 00:50:48;;;;;;;9.10;4.47;;;17.00;99.90;;;;;;5116217;28;20629;-67
2021/04/02 00:53:14;;;;;;;6.27;4.43;;;17.00;99.90;;;;;;5116118;28;20592;-67
2021/04/02 00:55:41;;;;;;;4.63;4.00;;;17.00;99.90;;;;;;5116328;28;20792;-66
2021/04/02 00:58:13;;;;;;;6.90;4.43;;;17.10;99.90;;;;;;5115928;28;20789;-66
2021/04/02 01:00:39;;;;;;;6.13;4.47;;;17.00;99.90;;;;;;5115786;28;20514;-66
2021/04/02 01:03:05;;;;;;;8.03;5.03;;;16.90;99.90;;;;;;5115762;28;20420;-67
2021/04/02 01:05:37;;;;;;;7.87;4.40;;;16.90;99.90;;;;;;5097641;28;20845;-66
2021/04/02 01:08:09;;;;;;;6.10;4.60;;;16.90;99.90;;;;;;5097518;28;20833;-66
2021/04/02 01:10:35;;;;;;;5.20;4.00;;;17.00;99.90;;;;;;5116130;28;20916;-66
2021/04/02 01:13:04;;;;;;;6.13;4.13;;;16.90;99.90;;;;;;5115672;28;20446;-67
2021/04/02 01:15:52;;;;;;;5.80;4.30;;;16.90;99.90;;;;;;5114388;28;20859;-67
2021/04/02 01:18:27;;;;;;;6.17;4.00;;;17.00;99.90;;;;;;5097588;28;20480;-66
2021/04/02 01:20:57;;;;;;;5.43;3.90;;;17.10;99.90;;;;;;5115776;28;20447;-66
2021/04/02 01:23:28;;;;;;;9.23;4.50;;;16.90;99.90;;;;;;5115541;28;20929;-66
2021/04/02 01:26:18;;;;;;;6.87;4.80;;;16.90;99.90;;;;;;5115593;28;20408;-66
2021/04/02 01:28:59;;;;;;;4.13;3.73;;;16.90;99.90;;;;;;5115294;28;20399;-68
2021/04/02 01:31:25;;;;;;;5.63;3.53;;;16.90;99.90;;;;;;5115767;28;20471;-67
2021/04/02 01:33:54;;;;;;;6.90;4.30;;;16.80;99.90;;;;;;5115211;28;20431;-66
2021/04/02 01:36:21;;;;;;;6.83;4.00;;;16.80;99.90;;;;;;5097117;28;20515;-66
2021/04/02 01:38:48;;;;;;;4.80;3.70;;;16.90;99.90;;;;;;5115108;28;20463;-66
2021/04/02 01:41:15;;;;;;;6.93;4.20;;;16.90;99.90;;;;;;5115340;28;20785;-66
2021/04/02 01:43:48;;;;;;;6.57;4.00;;;17.00;99.90;;;;;;5114521;28;20412;-67
2021/04/02 01:46:15;;;;;;;6.50;4.60;;;16.90;99.90;;;;;;5115636;28;20818;-66
2021/04/02 01:48:44;;;;;;;7.03;4.67;;;16.80;99.90;;;;;;5115106;28;20835;-67
2021/04/02 01:51:11;;;;;;;7.47;4.03;;;16.80;99.90;;;;;;5115363;28;20464;-67
2021/04/02 01:53:43;;;;;;;6.00;4.40;;;16.80;99.90;;;;;;5114817;28;20535;-66
2021/04/02 01:56:09;;;;;;;7.40;4.87;;;16.80;99.90;;;;;;5115322;28;20404;-66
2021/04/02 01:58:38;;;;;;;4.70;4.13;;;17.00;99.90;;;;;;5114807;28;20515;-66
2021/04/02 02:01:05;;;;;;;5.03;4.23;;;17.00;99.90;;;;;;5115187;28;20417;-67
2021/04/02 02:03:32;;;;;;;5.87;3.83;;;17.00;99.90;;;;;;5114643;28;20420;-67
2021/04/02 02:06:01;;;;;;;4.90;3.80;;;16.90;99.90;;;;;;5096662;28;20427;-67
2021/04/02 02:08:28;;;;;;;4.57;3.90;;;16.90;99.90;;;;;;5114673;28;20989;-66
2021/04/02 02:11:24;;;;;;;6.80;4.57;;;16.80;99.90;;;;;;5114720;28;20780;-66
2021/04/02 02:14:07;;;;;;;4.23;3.53;;;16.80;99.90;;;;;;5094152;28;21002;-66
2021/04/02 02:16:33;;;;;;;10.20;4.10;;;16.80;99.90;;;;;;5114811;28;20545;-66
2021/04/02 02:19:00;;;;;;;7.83;5.47;;;16.80;99.90;;;;;;5114406;28;20482;-67
2021/04/02 02:21:27;;;;;;;8.90;4.03;;;16.80;99.90;;;;;;5114941;28;20416;-67
2021/04/02 02:23:54;;;;;;;7.30;4.37;;;16.70;99.90;;;;;;5114372;28;20420;-67
2021/04/02 02:26:20;;;;;;;5.73;3.90;;;16.60;99.90;;;;;;5114901;28;20840;-67
2021/04/02 02:28:46;;;;;;;5.40;4.00;;;16.60;99.90;;;;;;5114348;28;20502;-67
2021/04/02 02:31:12;;;;;;;6.90;3.70;;;16.50;99.90;;;;;;5114512;28;20211;-68
2021/04/02 02:33:39;;;;;;;6.67;4.80;;;16.30;99.90;;;;;;5095992;28;20440;-66
2021/04/02 02:36:05;;;;;;;6.03;3.90;;;16.20;99.90;;;;;;5114683;28;20403;-67
2021/04/02 02:38:32;;;;;;;4.80;4.13;;;16.20;99.90;;;;;;5114205;28;20505;-67
2021/04/02 02:40:59;;;;;;;7.40;4.23;;;16.20;99.90;;;;;;5114552;28;20436;-67
2021/04/02 02:43:25;;;;;;;8.57;5.07;;;16.30;99.90;;;;;;5095880;28;20806;-67
2021/04/02 02:45:51;;;;;;;6.40;4.17;;;16.20;99.90;;;;;;5114435;28;20423;-68
2021/04/02 02:48:17;;;;;;;8.07;4.87;;;16.20;99.90;;;;;;5095869;28;20490;-66
2021/04/02 02:50:47;;;;;;;9.00;4.10;;;16.20;99.90;;;;;;5114210;28;20412;-66
2021/04/02 02:53:17;;;;;;;8.13;4.43;;;16.20;99.90;;;;;;5115451;28;20498;-66
2021/04/02 02:55:46;;;;;;;4.63;4.13;;;16.20;99.90;;;;;;5120998;28;20919;-67
2021/04/02 02:58:13;;;;;;;10.97;4.73;;;16.10;99.90;;;;;;5120862;28;20514;-67
2021/04/02 03:00:42;;;;;;;9.77;5.17;;;16.10;99.90;;;;;;5120967;28;20423;-66
2021/04/02 03:03:13;;;;;;;8.20;4.80;;;16.00;99.90;;;;;;5102511;28;20438;-68
2021/04/02 03:05:40;;;;;;;5.43;4.00;;;16.00;99.90;;;;;;5120978;28;20419;-68
2021/04/02 03:08:09;;;;;;;5.50;3.97;;;16.00;99.90;;;;;;5120691;28;20430;-67
2021/04/02 03:10:35;;;;;;;8.00;4.20;;;15.90;99.90;;;;;;5120870;28;20840;-67
2021/04/02 03:13:02;;;;;;;8.30;4.80;;;15.70;99.90;;;;;;5120641;28;20475;-67
2021/04/02 03:15:30;;;;;;;14.00;4.80;;;15.60;99.90;;;;;;5120844;28;20460;-67
2021/04/02 03:18:05;;;;;;;7.00;5.07;;;15.60;99.90;;;;;;5120698;28;20445;-68
2021/04/02 03:20:39;;;;;;;5.40;4.87;;;15.60;99.90;;;;;;5120644;28;20929;-68
2021/04/02 03:23:07;;;;;;;5.80;3.90;;;15.60;99.90;;;;;;5120606;28;20438;-68
2021/04/02 03:25:34;;;;;;;4.67;3.87;;;15.50;99.90;;;;;;5120755;28;20411;-67
2021/04/02 03:28:01;;;;;;;6.50;4.90;;;15.40;99.90;;;;;;5120600;28;20513;-67
2021/04/02 03:30:29;;;;;;;6.60;5.40;;;15.20;99.90;;;;;;5120669;28;20424;-66
2021/04/02 03:33:09;;;;;;;5.77;4.43;;;15.00;99.90;;;;;;5120369;28;20471;-68
2021/04/02 03:35:36;;;;;;;6.03;3.70;;;15.10;99.90;;;;;;5120778;28;20423;-68
2021/04/02 03:38:03;;;;;;;11.77;5.27;;;15.20;99.90;;;;;;5120408;28;20956;-67
2021/04/02 03:40:30;;;;;;;6.00;4.10;;;15.30;99.90;;;;;;5102210;28;20898;-67
2021/04/02 03:42:59;;;;;;;7.50;4.50;;;15.30;99.90;;;;;;5120482;28;20459;-67
2021/04/02 03:45:27;;;;;;;6.70;5.40;;;15.40;99.90;;;;;;5120631;28;20737;-67
2021/04/02 03:47:54;;;;;;;7.80;4.37;;;15.40;99.90;;;;;;5120338;28;20459;-68
2021/04/02 03:50:23;;;;;;;5.30;3.63;;;15.40;99.90;;;;;;5120509;28;20400;-68
2021/04/02 03:53:04;;;;;;;5.20;4.17;;;15.40;99.90;;;;;;5120175;28;20482;-66
2021/04/02 03:55:31;;;;;;;7.53;5.20;;;15.30;99.90;;;;;;5119078;28;20419;-67
2021/04/02 03:57:59;;;;;;;11.43;5.90;;;15.20;99.90;;;;;;5120304;28;20440;-67
2021/04/02 04:00:29;;;;;;;5.70;3.93;;;15.10;99.90;;;;;;5102028;28;20803;-66
2021/04/02 04:02:56;;;;;;;8.33;4.43;;;15.10;99.90;;;;;;5120187;28;20428;-68
2021/04/02 04:05:24;;;;;;;6.70;4.90;;;15.00;99.90;;;;;;5118084;28;20427;-67
2021/04/02 04:07:50;;;;;;;7.80;5.90;;;15.00;99.90;;;;;;5116938;28;20446;-66
2021/04/02 04:10:18;;;;;;;10.63;5.70;;;14.90;99.90;;;;;;5115735;28;20768;-67
2021/04/02 04:12:48;;;;;;;7.73;4.80;;;14.80;99.90;;;;;;5116757;28;20460;-66
2021/04/02 04:15:15;;;;;;;8.23;6.27;;;14.80;99.90;;;;;;5117083;28;20762;-66
2021/04/02 04:17:43;;;;;;;8.83;5.20;;;14.70;99.90;;;;;;5116867;28;20409;-67
2021/04/02 04:20:11;;;;;;;8.37;6.03;;;14.80;99.90;;;;;;5098633;28;20815;-67
2021/04/02 04:22:39;;;;;;;8.37;5.23;;;14.80;99.90;;;;;;5098392;28;20423;-66
2021/04/02 04:25:07;;;;;;;7.10;4.07;;;14.90;99.90;;;;;;5098462;28;20778;-67
2021/04/02 04:27:35;;;;;;;7.80;5.00;;;14.90;99.90;;;;;;5116591;28;20480;-66
2021/04/02 04:30:03;;;;;;;5.80;4.60;;;15.00;99.90;;;;;;5116706;28;20396;-66
2021/04/02 04:32:30;;;;;;;8.77;4.97;;;14.90;99.90;;;;;;5116558;28;20556;-66
2021/04/02 04:34:58;;;;;;;9.60;7.17;;;15.00;99.90;;;;;;5098243;28;20415;-66
2021/04/02 04:37:24;;;;;;;6.60;4.40;;;15.10;99.90;;;;;;5116417;28;20489;-67
2021/04/02 04:39:51;;;;;;;8.10;5.40;;;15.10;99.90;;;;;;5116285;28;20756;-68
2021/04/02 04:42:19;;;;;;;10.70;6.67;;;15.10;99.90;;;;;;5116477;28;20851;-66
2021/04/02 04:44:51;;;;;;;8.50;5.57;;;15.10;99.90;;;;;;5116289;28;20865;-66
2021/04/02 04:47:17;;;;;;;9.03;5.80;;;15.00;99.90;;;;;;5116219;28;20463;-66
2021/04/02 04:49:44;;;;;;;10.47;5.20;;;15.00;99.90;;;;;;5116188;28;20431;-67
2021/04/02 04:52:13;;;;;;;9.63;5.97;;;15.00;99.90;;;;;;5116624;28;20215;-67
2021/04/02 04:54:42;;;;;;;6.23;4.93;;;15.00;99.90;;;;;;5116050;28;20503;-66
2021/04/02 04:57:09;;;;;;;9.40;6.30;;;15.00;99.90;;;;;;5116659;28;20444;-66
2021/04/02 04:59:37;;;;;;;8.40;4.70;;;15.00;99.90;;;;;;5116032;28;20952;-67
2021/04/02 05:02:04;;;;;;;10.07;5.27;;;15.00;99.90;;;;;;5098027;28;20933;-68
2021/04/02 05:04:31;;;;;;;9.00;5.37;;;15.00;99.90;;;;;;5116054;28;20428;-66
2021/04/02 05:07:00;;;;;;;7.40;4.80;;;15.00;99.90;;;;;;5116391;28;20473;-66
2021/04/02 05:09:28;;;;;;;9.70;5.77;;;15.00;99.90;;;;;;5115781;28;20507;-68
2021/04/02 05:11:55;;;;;;;8.97;5.73;;;15.00;99.90;;;;;;5116057;28;20471;-67
2021/04/02 05:14:22;;;;;;;8.67;5.30;;;15.00;99.90;;;;;;5115677;28;20424;-67
2021/04/02 05:16:49;;;;;;;10.20;6.30;;;15.00;99.90;;;;;;5114403;28;20420;-67
2021/04/02 05:19:18;;;;;;;12.07;5.77;;;15.00;99.90;;;;;;5115251;28;20499;-66
2021/04/02 05:21:44;;;;;;;11.13;6.73;;;15.10;99.90;;;;;;5116036;28;20932;-66
2021/04/02 05:24:11;;;;;;;11.80;6.67;;;15.10;99.90;;;;;;5115650;28;20427;-67
2021/04/02 05:26:38;;;;;;;9.90;6.83;;;15.20;99.90;;;;;;5115914;28;20404;-67
2021/04/02 05:29:04;;;;;;;15.87;9.77;;;15.20;99.90;;;;;;5115381;28;20466;-67
2021/04/02 05:31:30;;;;;;;10.43;7.83;;;15.20;99.90;;;;;;5115694;28;20558;-68
2021/04/02 05:33:56;;;;;;;13.20;8.43;;;15.20;99.90;;;;;;5113962;28;20485;-67
2021/04/02 05:36:22;;;;;;;12.93;6.97;;;15.30;99.90;;;;;;5115657;28;20805;-67
2021/04/02 05:38:48;;;;;;;10.20;6.30;;;15.30;99.90;;;;;;5115179;28;20508;-68
2021/04/02 05:41:17;;;;;;;15.40;6.63;;;15.20;99.90;;;;;;5115431;28;20204;-66
2021/04/02 05:43:57;;;;;;;9.20;5.30;;;15.30;99.90;;;;;;5115344;28;20199;-66
2021/04/02 05:46:24;;;;;;;11.80;7.37;;;15.30;99.90;;;;;;5115388;28;20468;-68
2021/04/02 05:49:00;;;;;;;13.37;7.97;;;15.20;99.90;;;;;;5096665;28;20914;-66
2021/04/02 05:51:27;;;;;;;12.50;7.10;;;15.20;99.90;;;;;;5115369;28;20470;-66
2021/04/02 05:53:54;;;;;;;11.53;7.07;;;15.30;99.90;;;;;;5114858;28;20424;-66
2021/04/02 05:56:19;;;;;;;10.67;7.20;;;15.30;99.90;;;;;;5115299;28;20434;-68
2021/04/02 05:58:46;;;;;;;10.97;7.37;;;15.20;99.90;;;;;;5114769;28;20428;-68
2021/04/02 06:01:12;;;;;;;9.50;5.93;;;15.30;99.90;;;;;;5115157;28;20643;-66
2021/04/02 06:03:38;;;;;;;15.40;8.93;;;15.30;99.90;;;;;;5096466;28;20444;-66
2021/04/02 06:06:04;;;;;;;7.97;6.53;;;15.30;99.90;;;;;;5096684;28;20424;-66
2021/04/02 06:08:31;;;;;;;13.93;7.80;;;15.30;99.90;;;;;;5096399;28;20434;-66
2021/04/02 06:10:56;;;;;;;14.90;7.83;;;15.30;99.90;;;;;;5114829;28;20549;-67
2021/04/02 06:13:25;;;;;;;11.77;7.10;;;15.20;99.90;;;;;;5114593;28;20854;-66
2021/04/02 06:15:52;;;;;;;10.17;6.97;;;15.30;99.90;;;;;;5113443;28;20195;-66
2021/04/02 06:18:17;;;;;;;10.90;7.07;;;15.30;99.90;;;;;;5114539;28;20436;-66
2021/04/02 06:20:48;;;;;;;13.93;6.93;;;15.40;99.90;;;;;;5114217;28;20457;-66
2021/04/02 06:23:15;;;;;;;9.90;6.33;;;15.40;99.90;;;;;;5114615;28;20283;-67
2021/04/02 06:25:51;;;;;;;15.70;6.10;;;15.50;99.90;;;;;;5114444;28;20850;-67
2021/04/02 06:28:21;;;;;;;13.50;7.50;;;15.60;99.90;;;;;;5113934;28;20424;-66
2021/04/02 06:30:56;;;;;;;13.37;7.37;;;15.70;99.90;;;;;;5113144;28;20428;-66
2021/04/02 06:33:28;;;;;;;12.67;8.30;;;15.80;99.90;;;;;;5096014;28;21024;-68
2021/04/02 06:35:54;;;;;;;10.93;7.43;;;15.90;99.90;;;;;;5096207;28;20412;-67
2021/04/02 06:38:20;;;;;;;9.40;6.83;;;16.00;99.90;;;;;;5114174;28;20547;-68
2021/04/02 06:40:45;;;;;;;13.27;7.20;;;16.00;99.90;;;;;;5114398;28;20221;-67
2021/04/02 06:43:11;;;;;;;16.60;8.07;;;16.10;99.90;;;;;;5114162;28;20656;-67
2021/04/02 06:45:39;;;;;;;21.57;9.50;;;16.30;99.90;;;;;;5114352;28;20180;-67
2021/04/02 06:48:12;;;;;;;20.67;11.30;;;16.40;99.90;;;;;;5114222;28;20242;-68
2021/04/02 06:50:39;;;;;;;16.77;8.37;;;16.50;99.90;;;;;;5114275;28;20415;-68
2021/04/02 06:53:06;;;;;;;19.70;10.20;;;16.60;99.90;;;;;;5114025;28;20472;-67
2021/04/02 06:55:32;;;;;;;22.63;8.30;;;16.70;99.90;;;;;;5095854;28;20431;-67
2021/04/02 06:58:05;;;;;;;11.60;7.30;;;16.90;99.90;;;;;;5114066;28;20432;-66
2021/04/02 07:00:35;;;;;;;17.30;8.10;;;17.00;99.90;;;;;;5114065;28;20408;-68
2021/04/02 07:03:02;;;;;;;40.50;18.40;;;17.10;99.90;;;;;;5114038;28;20814;-67
2021/04/02 07:05:29;;;;;;;41.27;18.60;;;17.20;99.90;;;;;;5114128;28;20453;-66
2021/04/02 07:08:05;;;;;;;31.93;15.03;;;17.20;99.90;;;;;;5113861;28;20495;-68
2021/04/02 07:10:33;;;;;;;19.57;9.03;;;17.30;99.90;;;;;;5114063;28;20526;-66
2021/04/02 07:13:02;;;;;;;16.60;8.90;;;17.40;99.90;;;;;;5113777;28;20475;-66
2021/04/02 07:15:31;;;;;;;9.07;6.57;;;17.40;99.90;;;;;;5113921;28;20404;-66
2021/04/02 07:17:57;;;;;;;14.23;7.60;;;17.60;99.90;;;;;;5095607;28;20494;-67
2021/04/02 07:20:23;;;;;;;11.63;7.33;;;17.80;99.90;;;;;;5113928;28;20427;-68
2021/04/02 07:22:51;;;;;;;12.87;7.80;;;18.10;99.90;;;;;;5112389;28;20957;-66
2021/04/02 07:25:17;;;;;;;11.83;7.30;;;18.20;99.90;;;;;;5113941;28;20617;-67
2021/04/02 07:27:43;;;;;;;10.70;7.00;;;18.30;99.90;;;;;;5095449;28;20492;-66
2021/04/02 07:30:11;;;;;;;14.10;7.23;;;18.30;99.90;;;;;;5113673;28;20172;-67
2021/04/02 07:32:40;;;;;;;12.10;7.53;;;18.30;99.90;;;;;;5113620;28;20200;-66
2021/04/02 07:35:07;;;;;;;11.20;6.77;;;18.40;99.90;;;;;;5113743;28;20947;-67
2021/04/02 07:37:39;;;;;;;10.07;7.27;;;18.60;99.90;;;;;;5113509;28;20491;-68
2021/04/02 07:40:09;;;;;;;12.17;7.40;;;18.80;99.90;;;;;;5114174;28;20484;-66
2021/04/02 07:42:35;;;;;;;9.17;6.07;;;18.70;99.90;;;;;;5099305;28;20413;-67
2021/04/02 07:45:01;;;;;;;10.83;7.53;;;18.70;99.90;;;;;;5117487;28;20404;-66
2021/04/02 07:47:28;;;;;;;11.97;6.97;;;18.60;99.90;;;;;;5098934;28;20500;-66
2021/04/02 07:50:00;;;;;;;12.00;6.07;;;18.50;99.90;;;;;;5117348;28;20408;-68
2021/04/02 07:52:30;;;;;;;11.80;6.83;;;18.50;99.90;;;;;;5117250;28;20605;-66
2021/04/02 07:55:22;;;;;;;13.80;7.70;;;18.60;99.90;;;;;;5117325;28;20394;-68
2021/04/02 07:57:53;;;;;;;14.83;7.47;;;18.70;99.90;;;;;;5112351;28;20441;-68
2021/04/02 08:00:22;;;;;;;12.10;6.37;;;18.70;99.90;;;;;;5116020;28;20575;-67
2021/04/02 08:03:09;;;;;;;11.50;6.37;;;18.90;99.90;;;;;;5117005;28;20781;-66
2021/04/02 08:05:35;;;;;;;10.77;6.87;;;19.10;99.90;;;;;;5117397;28;20413;-68
2021/04/02 08:08:01;;;;;;;17.30;7.40;;;19.20;99.90;;;;;;5117039;28;20986;-68
2021/04/02 08:10:26;;;;;;;12.70;5.93;;;19.40;99.90;;;;;;5117196;28;20165;-67
2021/04/02 08:12:52;;;;;;;13.07;7.70;;;19.80;99.90;;;;;;5116810;28;20214;-69
2021/04/02 08:15:19;;;;;;;13.80;6.53;;;20.10;99.40;;;;;;5117058;28;20295;-69
2021/04/02 08:17:47;;;;;;;11.90;6.47;;;20.30;97.80;;;;;;5116783;28;20202;-67
2021/04/02 08:20:21;;;;;;;11.10;6.40;;;20.40;97.60;;;;;;5116885;28;20908;-66
2021/04/02 08:22:51;;;;;;;12.97;6.70;;;20.90;96.40;;;;;;5116655;28;20427;-69
2021/04/02 08:25:19;;;;;;;9.97;7.47;;;21.00;96.30;;;;;;5116825;28;20406;-67
2021/04/02 08:27:46;;;;;;;10.20;7.07;;;21.30;95.50;;;;;;5116586;28;20796;-67
2021/04/02 08:30:14;;;;;;;14.83;6.37;;;21.20;94.00;;;;;;5116665;28;20495;-67
2021/04/02 08:32:43;;;;;;;12.97;6.30;;;21.50;93.30;;;;;;5116223;28;20554;-67
2021/04/02 08:35:12;;;;;;;13.80;6.37;;;21.40;91.60;;;;;;5116521;28;20392;-68
2021/04/02 08:37:38;;;;;;;14.57;8.03;;;21.20;92.40;;;;;;5116337;28;20491;-66
2021/04/02 08:40:08;;;;;;;9.73;6.10;;;20.90;94.70;;;;;;5116624;28;20829;-67
2021/04/02 08:42:34;;;;;;;10.40;6.73;;;20.60;96.40;;;;;;5116437;28;20517;-68
2021/04/02 08:45:09;;;;;;;8.00;6.77;;;20.20;97.80;;;;;;5116411;28;20400;-68
2021/04/02 08:47:38;;;;;;;9.00;5.97;;;19.90;99.20;;;;;;5116153;28;20508;-67
2021/04/02 08:50:06;;;;;;;11.40;7.17;;;19.80;99.90;;;;;;5116266;28;20395;-67
2021/04/02 08:52:32;;;;;;;14.10;8.30;;;19.80;99.90;;;;;;5115738;28;20826;-67
2021/04/02 08:55:08;;;;;;;15.70;7.90;;;19.80;99.90;;;;;;5116071;28;20400;-67
2021/04/02 08:57:36;;;;;;;7.60;6.03;;;19.80;99.90;;;;;;5115952;28;20412;-66
2021/04/02 09:00:06;;;;;;;13.33;6.53;;;19.90;99.90;;;;;;5116095;28;20934;-67
2021/04/02 09:02:34;;;;;;;13.03;8.50;;;19.90;99.20;;;;;;5114724;28;20916;-67
2021/04/02 09:05:02;;;;;;;9.33;5.93;;;19.70;98.40;;;;;;5115984;28;20403;-68
2021/04/02 09:07:28;;;;;;;8.27;5.60;;;19.70;98.30;;;;;;5115918;28;20407;-68
2021/04/02 09:09:53;;;;;;;11.27;6.30;;;19.60;98.80;;;;;;5115862;28;20793;-67
2021/04/02 09:12:20;;;;;;;13.90;8.53;;;19.50;98.50;;;;;;5115813;28;20215;-67
2021/04/02 09:14:49;;;;;;;12.03;6.43;;;19.40;98.80;;;;;;5115747;28;20196;-68
2021/04/02 09:17:19;;;;;;;10.90;6.33;;;19.50;97.80;;;;;;5115957;28;20430;-68
2021/04/02 09:19:45;;;;;;;8.17;6.00;;;19.60;98.00;;;;;;5115704;28;20884;-66
2021/04/02 09:22:12;;;;;;;13.83;6.20;;;19.80;98.00;;;;;;5097492;28;20441;-67
2021/04/02 09:24:42;;;;;;;9.13;6.00;;;19.90;97.60;;;;;;5115466;28;20492;-66
2021/04/02 09:27:19;;;;;;;8.40;4.93;;;20.20;96.90;;;;;;5097475;28;20454;-66
2021/04/02 09:29:56;;;;;;;9.60;5.83;;;20.70;94.20;;;;;;5115523;28;20418;-66
2021/04/02 09:32:29;;;;;;;9.00;5.60;;;20.90;95.00;;;;;;5115411;28;20458;-69
2021/04/02 09:34:58;;;;;;;9.00;5.20;;;21.20;92.30;;;;;;5115613;28;20757;-67
2021/04/02 09:37:25;;;;;;;10.63;6.47;;;21.80;92.70;;;;;;5115437;28;20414;-67
2021/04/02 09:40:02;;;;;;;11.47;6.73;;;22.10;92.20;;;;;;5115210;28;20734;-68
2021/04/02 09:42:30;;;;;;;10.70;6.10;;;22.00;91.00;;;;;;5096914;28;20403;-67
2021/04/02 09:45:03;;;;;;;9.10;5.80;;;22.40;91.30;;;;;;5096756;28;20465;-66
2021/04/02 09:47:29;;;;;;;10.70;7.50;;;22.90;89.90;;;;;;5096710;28;20983;-68
2021/04/02 09:49:55;;;;;;;9.27;6.47;;;23.00;88.40;;;;;;5115029;28;20398;-69
2021/04/02 09:52:21;;;;;;;12.37;6.63;;;22.80;87.70;;;;;;5115048;28;20216;-68
2021/04/02 09:54:47;;;;;;;7.13;5.87;;;22.70;88.40;;;;;;5114899;28;20555;-68
2021/04/02 09:57:13;;;;;;;11.83;6.73;;;22.90;86.60;;;;;;5115522;28;20426;-68
2021/04/02 09:59:38;;;;;;;11.23;6.87;;;22.70;86.40;;;;;;5114822;28;20548;-67
2021/04/02 10:02:04;;;;;;;15.23;7.33;;;22.70;87.00;;;;;;5115506;28;20170;-67
2021/04/02 10:04:30;;;;;;;8.67;6.60;;;22.70;87.30;;;;;;5114147;28;20193;-67
2021/04/02 10:06:57;;;;;;;10.87;7.53;;;23.00;84.50;;;;;;5115419;28;20408;-67
2021/04/02 10:09:23;;;;;;;12.57;7.43;;;23.00;83.50;;;;;;5114755;28;20197;-67
2021/04/02 10:11:49;;;;;;;12.00;6.13;;;23.10;81.60;;;;;;5115096;28;20968;-67
2021/04/02 10:14:16;;;;;;;10.57;6.13;;;22.90;80.40;;;;;;5114643;28;20279;-70
2021/04/02 10:16:45;;;;;;;11.87;7.90;;;22.70;81.70;;;;;;5115160;28;20958;-67
2021/04/02 10:19:11;;;;;;;10.33;7.60;;;22.80;80.30;;;;;;5114536;28;20438;-67
2021/04/02 10:21:36;;;;;;;12.30;7.63;;;22.60;79.90;;;;;;5114853;28;20417;-68
2021/04/02 10:24:02;;;;;;;14.73;9.43;;;22.70;79.70;;;;;;5114389;28;20425;-68
2021/04/02 10:26:29;;;;;;;11.07;6.80;;;22.50;78.30;;;;;;5114944;28;20569;-66
2021/04/02 10:28:55;;;;;;;14.87;8.07;;;22.50;79.30;;;;;;5114322;28;20422;-68
2021/04/02 10:31:21;;;;;;;14.97;9.67;;;22.60;78.10;;;;;;5114682;28;20444;-67
2021/04/02 10:33:47;;;;;;;12.90;8.10;;;22.50;76.10;;;;;;5114195;28;20484;-67
2021/04/02 10:36:13;;;;;;;15.43;7.80;;;22.20;76.30;;;;;;5113242;28;20674;-67
2021/04/02 10:38:39;;;;;;;13.20;8.43;;;22.20;76.80;;;;;;5114153;28;20250;-67
2021/04/02 10:41:04;;;;;;;12.00;7.97;;;22.10;78.10;;;;;;5114599;28;20413;-67
2021/04/02 10:43:31;;;;;;;9.50;6.50;;;21.90;76.90;;;;;;5114172;28;20424;-66
2021/04/02 10:45:57;;;;;;;14.80;9.50;;;21.90;79.00;;;;;;5095977;28;20180;-67
2021/04/02 10:48:23;;;;;;;11.90;7.70;;;22.20;78.70;;;;;;5114005;28;20550;-67
2021/04/02 10:50:49;;;;;;;16.53;7.80;;;22.40;80.40;;;;;;5114224;28;20440;-68
2021/04/02 10:53:16;;;;;;;12.40;7.70;;;22.80;76.40;;;;;;5114090;28;20264;-68
2021/04/02 10:55:43;;;;;;;14.10;7.50;;;22.90;76.60;;;;;;5114301;28;20424;-67
2021/04/02 10:58:09;;;;;;;15.90;8.33;;;22.90;75.90;;;;;;5114039;28;20526;-68
2021/04/02 11:00:35;;;;;;;10.93;7.93;;;23.20;74.60;;;;;;5114283;28;20432;-69
2021/04/02 11:03:02;;;;;;;14.20;7.87;;;23.30;74.90;;;;;;5114037;28;20925;-69
2021/04/02 11:05:28;;;;;;;11.57;8.00;;;22.70;74.80;;;;;;5114122;28;20412;-68
2021/04/02 11:07:54;;;;;;;9.37;6.37;;;22.80;75.90;;;;;;5113904;28;20420;-69
2021/04/02 11:10:21;;;;;;;13.33;7.37;;;23.10;74.80;;;;;;5114122;28;20415;-68
2021/04/02 11:12:47;;;;;;;10.80;6.70;;;23.10;75.90;;;;;;5113870;28;20270;-69
2021/04/02 11:15:13;;;;;;;12.93;7.57;;;23.20;75.80;;;;;;5116448;28;20420;-67
2021/04/02 11:17:43;;;;;;;14.23;7.40;;;22.90;75.10;;;;;;5099664;28;20198;-68
2021/04/02 11:20:17;;;;;;;9.93;7.37;;;22.50;75.50;;;;;;5118117;28;20407;-68
2021/04/02 11:22:42;;;;;;;10.33;7.47;;;21.90;76.00;;;;;;5099661;28;20783;-69
2021/04/02 11:25:10;;;;;;;10.30;6.90;;;21.80;76.40;;;;;;5099669;28;20408;-67
2021/04/02 11:27:36;;;;;;;13.30;7.80;;;21.90;75.90;;;;;;5099614;28;20225;-67
2021/04/02 11:30:05;;;;;;;11.70;7.63;;;21.70;76.50;;;;;;5117802;28;20476;-67
2021/04/02 11:32:30;;;;;;;11.00;7.20;;;21.50;76.10;;;;;;5117642;28;20618;-68
2021/04/02 11:34:56;;;;;;;9.23;7.17;;;21.80;77.50;;;;;;5117715;28;20976;-67
2021/04/02 11:37:21;;;;;;;17.07;7.20;;;22.10;77.10;;;;;;5117704;28;20660;-68
2021/04/02 11:39:47;;;;;;;17.03;8.97;;;22.50;76.60;;;;;;5099221;28;20629;-68
2021/04/02 11:42:13;;;;;;;14.00;9.00;;;22.40;75.30;;;;;;5118135;28;20496;-68
2021/04/02 11:44:39;;;;;;;12.83;7.97;;;22.40;74.60;;;;;;5117513;28;20196;-67
2021/04/02 11:47:05;;;;;;;12.20;7.93;;;22.50;74.70;;;;;;5095768;28;20456;-69
2021/04/02 11:49:31;;;;;;;11.67;7.60;;;22.80;74.50;;;;;;5097013;28;20444;-66
2021/04/02 11:51:56;;;;;;;13.30;7.83;;;23.30;74.70;;;;;;5097340;28;20464;-67
2021/04/02 11:54:24;;;;;;;12.47;7.40;;;23.50;74.60;;;;;;5096801;28;20197;-67
2021/04/02 11:56:49;;;;;;;15.47;8.33;;;23.60;73.20;;;;;;5097297;28;20173;-67
2021/04/02 11:59:15;;;;;;;12.50;8.17;;;23.40;72.50;;;;;;5095544;28;20444;-67
2021/04/02 12:01:41;;;;;;;11.80;7.33;;;23.40;73.30;;;;;;5097289;28;20166;-68
2021/04/02 12:04:09;;;;;;;15.57;9.10;;;23.40;73.00;;;;;;5095504;28;20433;-67
2021/04/02 12:06:35;;;;;;;14.37;7.37;;;23.20;72.90;;;;;;5096725;28;20173;-68
2021/04/02 12:09:01;;;;;;;13.70;8.33;;;23.10;73.50;;;;;;5096441;28;20847;-68
2021/04/02 12:11:26;;;;;;;13.00;9.00;;;23.30;73.50;;;;;;5096910;28;20444;-68
2021/04/02 12:13:52;;;;;;;18.17;9.00;;;23.20;73.20;;;;;;5096520;28;20656;-68
2021/04/02 12:16:18;;;;;;;13.17;8.50;;;23.30;73.70;;;;;;5097096;28;20570;-67
2021/04/02 12:18:43;;;;;;;13.90;9.33;;;23.10;73.40;;;;;;5096426;28;20218;-67
2021/04/02 12:21:09;;;;;;;17.30;9.57;;;23.10;73.00;;;;;;5096412;28;20532;-67
2021/04/02 12:23:35;;;;;;;11.50;8.40;;;23.50;72.30;;;;;;5096178;28;20786;-66
2021/04/02 12:26:00;;;;;;;13.70;7.20;;;23.40;72.50;;;;;;5095970;28;20616;-66
2021/04/02 12:28:26;;;;;;;10.50;7.87;;;23.70;72.40;;;;;;5095011;28;20210;-68
2021/04/02 12:30:52;;;;;;;12.57;7.80;;;23.20;72.60;;;;;;5096518;28;20616;-67
2021/04/02 12:33:18;;;;;;;18.33;8.90;;;23.40;71.90;;;;;;5096165;28;20743;-67
2021/04/02 12:35:43;;;;;;;15.40;8.93;;;23.30;71.10;;;;;;5096421;28;20200;-67
2021/04/02 12:38:09;;;;;;;19.93;9.27;;;23.30;71.20;;;;;;5094825;28;20546;-67
2021/04/02 12:40:36;;;;;;;11.97;7.50;;;23.80;71.40;;;;;;5094869;28;20628;-68
2021/04/02 12:43:02;;;;;;;13.33;7.87;;;24.10;69.00;;;;;;5095926;28;20787;-68
2021/04/02 12:45:28;;;;;;;13.33;9.50;;;24.10;69.30;;;;;;5094657;28;20466;-67